Time;durP1;ratioP1;P1;durP2;ratioP2;P2;SDS_P1;SDS_P2;PMS_P1;PMS_P2;Temp;Humidity;BMP_temperature;BMP_pressure;BME280_temperature;BME280_humidity;BME280_pressure;Samples;Min_cycle;Max_cycle;Signal;HPM_P1;HPM_P2
2022/03/22 00:01:51;;;;;;;26.02;16.65;;;7.40;99.90;;;;;;5036419;28;20137;-59
2022/03/22 00:04:20;;;;;;;25.85;19.02;;;7.40;99.90;;;;;;5021562;28;20045;-61
2022/03/22 00:06:46;;;;;;;27.88;17.52;;;7.40;99.90;;;;;;5014382;28;20835;-61
2022/03/22 00:09:11;;;;;;;29.85;18.50;;;7.30;99.90;;;;;;5039308;28;20033;-59
2022/03/22 00:11:37;;;;;;;29.02;20.33;;;7.50;99.90;;;;;;5021448;28;20049;-59
2022/03/22 00:14:03;;;;;;;27.40;18.15;;;7.30;99.90;;;;;;5019303;28;20088;-59
2022/03/22 00:16:29;;;;;;;26.98;19.88;;;7.30;99.90;;;;;;5043377;28;20049;-61
2022/03/22 00:18:55;;;;;;;31.60;21.65;;;7.30;99.90;;;;;;5035849;28;20060;-60
2022/03/22 00:21:21;;;;;;;26.50;20.05;;;7.40;99.90;;;;;;5035238;28;20044;-60
2022/03/22 00:23:47;;;;;;;41.28;19.95;;;7.40;99.90;;;;;;5019138;28;20056;-60
2022/03/22 00:26:13;;;;;;;27.70;20.05;;;7.40;99.90;;;;;;5044057;28;20059;-60
2022/03/22 00:28:39;;;;;;;33.00;21.73;;;7.30;99.90;;;;;;5023192;28;20048;-61
2022/03/22 00:31:05;;;;;;;31.92;18.75;;;7.30;99.90;;;;;;5041070;28;20523;-61
2022/03/22 00:33:31;;;;;;;26.38;18.52;;;7.30;99.90;;;;;;5041818;28;20053;-60
2022/03/22 00:35:57;;;;;;;29.42;20.45;;;7.30;99.90;;;;;;5026343;28;20081;-61
2022/03/22 00:38:22;;;;;;;39.53;26.60;;;7.20;99.90;;;;;;5036554;28;20044;-59
2022/03/22 00:40:48;;;;;;;36.47;23.25;;;7.20;99.90;;;;;;5041765;28;20052;-60
2022/03/22 00:43:14;;;;;;;39.45;26.17;;;7.00;99.90;;;;;;5039363;28;20148;-59
2022/03/22 00:45:40;;;;;;;36.85;23.02;;;7.00;99.90;;;;;;5036338;28;20041;-59
2022/03/22 00:48:08;;;;;;;35.38;23.42;;;7.00;99.90;;;;;;5039798;28;20037;-60
2022/03/22 00:50:36;;;;;;;28.27;20.17;;;6.90;99.90;;;;;;5037149;28;20041;-59
2022/03/22 00:53:04;;;;;;;33.97;24.35;;;6.90;99.90;;;;;;5045401;28;20040;-60
2022/03/22 00:55:31;;;;;;;35.60;23.40;;;6.90;99.90;;;;;;5048189;28;20055;-59
2022/03/22 00:57:58;;;;;;;32.47;22.15;;;6.90;99.90;;;;;;5026479;28;20060;-62
2022/03/22 01:00:25;;;;;;;33.63;23.25;;;6.80;99.90;;;;;;5038874;28;20056;-61
2022/03/22 01:02:55;;;;;;;39.70;23.33;;;6.90;99.90;;;;;;5038838;28;20429;-61
2022/03/22 01:05:23;;;;;;;32.17;21.40;;;6.90;99.90;;;;;;5036748;28;20049;-61
2022/03/22 01:08:01;;;;;;;32.45;20.70;;;6.80;99.90;;;;;;5019804;28;20052;-60
2022/03/22 01:10:30;;;;;;;35.75;23.00;;;6.80;99.90;;;;;;5047969;28;20037;-59
2022/03/22 01:12:56;;;;;;;31.65;18.33;;;6.80;99.90;;;;;;5019861;28;20049;-60
2022/03/22 01:15:25;;;;;;;32.63;21.73;;;6.70;99.90;;;;;;5047565;28;20045;-60
2022/03/22 01:17:54;;;;;;;34.10;21.55;;;6.70;99.90;;;;;;5033146;28;20048;-60
2022/03/22 01:20:22;;;;;;;34.42;23.00;;;6.70;99.90;;;;;;5056445;28;20052;-60
2022/03/22 01:22:49;;;;;;;31.67;20.75;;;6.80;99.90;;;;;;5053432;28;20145;-60
2022/03/22 01:25:18;;;;;;;25.98;18.98;;;6.70;99.90;;;;;;5047544;28;20028;-59
2022/03/22 01:27:46;;;;;;;37.30;22.15;;;6.70;99.90;;;;;;5046111;28;20055;-60
2022/03/22 01:30:13;;;;;;;30.02;22.20;;;6.80;99.90;;;;;;5023300;28;20106;-60
2022/03/22 01:32:39;;;;;;;30.13;21.85;;;6.70;99.90;;;;;;5044014;28;20072;-59
2022/03/22 01:35:08;;;;;;;30.42;21.58;;;6.70;99.90;;;;;;5028245;28;20103;-60
2022/03/22 01:37:35;;;;;;;30.13;19.98;;;6.70;99.90;;;;;;5050017;28;20082;-60
2022/03/22 01:40:01;;;;;;;36.05;21.60;;;6.70;99.90;;;;;;5048335;28;20095;-60
2022/03/22 01:42:27;;;;;;;30.17;19.42;;;6.60;99.90;;;;;;5044766;28;20071;-60
2022/03/22 01:44:53;;;;;;;24.17;20.67;;;6.60;99.90;;;;;;5040105;28;20084;-61
2022/03/22 01:47:20;;;;;;;29.27;19.13;;;6.60;99.90;;;;;;5047536;28;20048;-61
2022/03/22 01:49:47;;;;;;;28.92;19.15;;;6.60;99.90;;;;;;5048814;28;20119;-60
2022/03/22 01:52:20;;;;;;;35.50;22.58;;;6.60;99.90;;;;;;5035481;28;20848;-60
2022/03/22 01:54:50;;;;;;;37.38;27.85;;;6.60;99.90;;;;;;5047204;28;20084;-60
2022/03/22 01:57:19;;;;;;;39.67;23.75;;;6.60;99.90;;;;;;5031907;28;20130;-61
2022/03/22 01:59:45;;;;;;;41.25;25.13;;;6.60;99.90;;;;;;5044251;28;20044;-61
2022/03/22 02:07:43;;;;;;;30.08;20.13;;;6.60;99.90;;;;;;5049785;28;20124;-60
2022/03/22 02:10:08;;;;;;;28.00;22.10;;;6.60;99.90;;;;;;5040819;28;20130;-60
2022/03/22 02:12:34;;;;;;;35.72;23.00;;;6.60;99.90;;;;;;5055957;28;20040;-60
2022/03/22 02:15:00;;;;;;;37.83;23.65;;;6.60;99.90;;;;;;5046651;28;20048;-60
2022/03/22 02:17:25;;;;;;;33.53;23.25;;;6.60;99.90;;;;;;5040246;28;20040;-60
2022/03/22 02:19:51;;;;;;;32.28;23.33;;;6.60;99.90;;;;;;5047026;28;20193;-60
2022/03/22 02:22:18;;;;;;;35.42;23.80;;;5.80;99.90;;;;;;5038438;28;20041;-60
2022/03/22 02:24:45;;;;;;;41.35;25.17;;;6.70;99.90;;;;;;5020523;28;20083;-60
2022/03/22 02:27:11;;;;;;;32.80;21.38;;;6.60;99.90;;;;;;5031320;28;20049;-60
2022/03/22 02:29:37;;;;;;;32.10;21.38;;;6.70;99.90;;;;;;5039400;28;20049;-60
2022/03/22 02:32:03;;;;;;;41.75;24.80;;;6.70;99.90;;;;;;5056914;28;20047;-60
2022/03/22 02:34:30;;;;;;;30.20;21.70;;;6.70;99.90;;;;;;5051541;28;20041;-61
2022/03/22 02:36:57;;;;;;;35.30;23.75;;;6.70;99.90;;;;;;5045827;28;20041;-60
2022/03/22 02:39:23;;;;;;;36.17;25.10;;;6.70;99.90;;;;;;5036427;28;20052;-60
2022/03/22 02:41:51;;;;;;;41.45;27.38;;;6.60;99.90;;;;;;5041623;28;20048;-60
2022/03/22 02:44:20;;;;;;;33.78;23.75;;;6.50;99.90;;;;;;5018542;28;20575;-60
2022/03/22 02:46:48;;;;;;;35.92;22.95;;;6.50;99.90;;;;;;5044705;28;20127;-60
2022/03/22 02:49:14;;;;;;;42.65;25.98;;;6.40;99.90;;;;;;5038491;28;20911;-60
2022/03/22 02:51:40;;;;;;;43.10;24.67;;;6.50;99.90;;;;;;5040432;28;20044;-60
2022/03/22 02:54:06;;;;;;;39.22;25.63;;;6.40;99.90;;;;;;5044736;28;20049;-60
2022/03/22 02:56:32;;;;;;;32.47;22.85;;;6.40;99.90;;;;;;5038926;28;20039;-60
2022/03/22 02:58:58;;;;;;;34.88;21.60;;;6.20;99.90;;;;;;5036631;28;20066;-60
2022/03/22 03:01:24;;;;;;;33.15;24.20;;;6.20;99.90;;;;;;5036218;28;20894;-60
2022/03/22 03:03:49;;;;;;;30.50;20.38;;;6.20;99.90;;;;;;5044708;28;20072;-60
2022/03/22 03:06:15;;;;;;;28.60;20.60;;;6.10;99.90;;;;;;5045266;28;20179;-60
2022/03/22 03:08:44;;;;;;;22.77;18.80;;;6.00;99.90;;;;;;5037082;28;20052;-60
2022/03/22 03:11:09;;;;;;;26.08;18.25;;;5.90;99.90;;;;;;5045978;28;20049;-60
2022/03/22 03:16:19;;;;;;;33.70;20.27;;;5.80;99.90;;;;;;5040564;28;20049;-60
2022/03/22 03:18:45;;;;;;;27.27;19.50;;;5.80;99.90;;;;;;5051630;28;20514;-60
2022/03/22 03:21:11;;;;;;;25.95;19.20;;;5.80;99.90;;;;;;5044764;28;20060;-60
2022/03/22 03:23:36;;;;;;;27.48;17.45;;;5.70;99.90;;;;;;5038393;28;20056;-60
2022/03/22 03:26:02;;;;;;;29.55;19.60;;;5.70;99.90;;;;;;5040172;28;20052;-61
2022/03/22 03:28:28;;;;;;;27.92;18.73;;;5.60;99.90;;;;;;5044443;28;20056;-59
2022/03/22 03:30:53;;;;;;;28.17;17.90;;;5.70;99.90;;;;;;5038538;28;20051;-59
2022/03/22 03:33:19;;;;;;;25.55;17.85;;;5.70;99.90;;;;;;5044540;28;20061;-60
2022/03/22 03:35:44;;;;;;;24.30;17.73;;;5.80;99.90;;;;;;5035475;28;20084;-61
2022/03/22 03:38:13;;;;;;;29.40;18.63;;;5.90;99.90;;;;;;5026608;28;20044;-60
2022/03/22 03:43:23;;;;;;;32.55;20.33;;;5.90;99.90;;;;;;5046214;28;20059;-59
2022/03/22 03:48:33;;;;;;;27.10;18.00;;;5.80;99.90;;;;;;5043580;28;20076;-60
2022/03/22 03:50:58;;;;;;;27.02;18.85;;;5.80;99.90;;;;;;5039535;28;20164;-61
2022/03/22 03:53:24;;;;;;;34.33;22.75;;;5.80;99.90;;;;;;5037772;28;20142;-59
2022/03/22 03:55:50;;;;;;;39.83;23.55;;;5.90;99.90;;;;;;5043999;28;20496;-60
2022/03/22 03:58:15;;;;;;;28.38;20.17;;;5.70;99.90;;;;;;5037250;28;20043;-59
2022/03/22 04:00:41;;;;;;;30.80;20.65;;;5.60;99.90;;;;;;5045831;28;20055;-59
2022/03/22 04:03:07;;;;;;;30.38;18.80;;;5.50;99.90;;;;;;5047508;28;21066;-61
2022/03/22 04:05:32;;;;;;;42.08;24.63;;;5.50;99.90;;;;;;5043037;28;20045;-59
2022/03/22 04:07:58;;;;;;;38.42;23.40;;;5.40;99.90;;;;;;5039561;28;20151;-59
2022/03/22 04:10:23;;;;;;;38.17;23.95;;;5.30;99.90;;;;;;5041377;28;20359;-59
2022/03/22 04:12:52;;;;;;;30.80;23.38;;;5.20;99.90;;;;;;5041118;28;20543;-60
2022/03/22 04:15:18;;;;;;;34.95;25.65;;;5.20;99.90;;;;;;5037936;28;20134;-59
2022/03/22 04:17:43;;;;;;;37.47;22.05;;;5.00;99.90;;;;;;5044775;28;20152;-60
2022/03/22 04:20:10;;;;;;;32.75;22.38;;;4.80;99.90;;;;;;5036710;28;20110;-60
2022/03/22 04:22:35;;;;;;;32.20;22.40;;;4.70;99.90;;;;;;5046610;28;20037;-60
2022/03/22 04:25:01;;;;;;;31.42;20.55;;;4.70;99.90;;;;;;5035368;28;20633;-61
2022/03/22 04:32:56;;;;;;;35.47;23.58;;;4.50;99.90;;;;;;5045363;28;20053;-59
2022/03/22 04:35:27;;;;;;;33.35;21.45;;;4.50;99.90;;;;;;5046910;28;20053;-59
2022/03/22 04:37:54;;;;;;;32.08;21.77;;;4.60;99.90;;;;;;5042008;28;20794;-59
2022/03/22 04:40:20;;;;;;;29.77;21.67;;;4.90;99.90;;;;;;5047833;28;20045;-60
2022/03/22 04:42:47;;;;;;;36.70;23.20;;;4.50;99.90;;;;;;5038563;28;20049;-60
2022/03/22 04:45:13;;;;;;;46.47;27.42;;;4.50;99.90;;;;;;5030760;28;20131;-60
2022/03/22 04:47:39;;;;;;;41.00;23.88;;;4.40;99.90;;;;;;5039062;28;20493;-60
2022/03/22 04:50:07;;;;;;;34.40;23.08;;;4.40;99.90;;;;;;5046476;28;20036;-59
2022/03/22 04:58:04;;;;;;;36.95;23.92;;;4.30;99.90;;;;;;5041565;28;20758;-60
2022/03/22 05:00:30;;;;;;;34.95;22.50;;;4.30;99.90;;;;;;5042106;28;20045;-60
2022/03/22 05:02:56;;;;;;;37.33;23.88;;;4.20;99.90;;;;;;5046295;28;20132;-59
2022/03/22 05:06:25;;;;;;;37.00;28.02;;;4.20;99.90;;;;;;5043098;28;20051;-60
2022/03/22 05:08:07;;;;;;;34.75;22.75;;;4.20;99.90;;;;;;5042319;28;20055;-62
2022/03/22 05:10:34;;;;;;;30.35;20.40;;;4.20;99.90;;;;;;5044134;28;20845;-60
2022/03/22 05:13:00;;;;;;;36.38;25.48;;;4.20;99.90;;;;;;5043582;28;20060;-60
2022/03/22 05:15:25;;;;;;;41.15;25.67;;;4.30;99.90;;;;;;5041812;28;20037;-59
2022/03/22 05:17:51;;;;;;;34.20;23.75;;;4.30;99.90;;;;;;5035090;28;20557;-60
2022/03/22 05:20:17;;;;;;;31.23;19.85;;;4.30;99.90;;;;;;5041838;28;20049;-60
2022/03/22 05:22:43;;;;;;;37.78;22.05;;;3.20;99.90;;;;;;5048950;28;20049;-60
2022/03/22 05:25:09;;;;;;;36.33;20.67;;;4.30;99.90;;;;;;5019690;28;20045;-62
2022/03/22 05:27:38;;;;;;;29.65;20.83;;;4.30;99.90;;;;;;5049307;28;20048;-60
2022/03/22 05:30:05;;;;;;;34.33;22.73;;;4.20;99.90;;;;;;5038605;28;20753;-61
2022/03/22 05:32:30;;;;;;;31.65;23.67;;;4.20;99.90;;;;;;5046217;28;20164;-61
2022/03/22 05:34:56;;;;;;;35.88;24.35;;;4.20;99.90;;;;;;5037961;28;20057;-61
2022/03/22 05:37:22;;;;;;;32.70;24.88;;;4.20;99.90;;;;;;5042756;28;20084;-61
2022/03/22 05:39:48;;;;;;;37.30;24.80;;;4.20;99.90;;;;;;5048157;28;20507;-60
2022/03/22 05:42:16;;;;;;;39.53;25.98;;;4.10;99.90;;;;;;5023740;28;20060;-62
2022/03/22 05:44:43;;;;;;;38.80;24.20;;;4.20;99.90;;;;;;5037378;28;20051;-60
2022/03/22 05:47:09;;;;;;;35.80;23.67;;;4.20;99.90;;;;;;5025354;28;20266;-61
2022/03/22 05:49:36;;;;;;;36.13;23.38;;;4.20;99.90;;;;;;5043971;28;20802;-60
2022/03/22 05:52:03;;;;;;;31.95;23.92;;;4.20;99.90;;;;;;5041421;28;20100;-59
2022/03/22 05:54:28;;;;;;;37.58;23.88;;;4.30;99.90;;;;;;5017881;28;20084;-60
2022/03/22 05:56:54;;;;;;;34.45;24.27;;;4.40;99.90;;;;;;5017798;28;20084;-61
2022/03/22 05:59:20;;;;;;;42.45;26.85;;;4.40;99.90;;;;;;5034387;28;20154;-60
2022/03/22 06:01:46;;;;;;;30.15;19.30;;;4.40;99.90;;;;;;5037353;28;20128;-60
2022/03/22 06:04:11;;;;;;;40.63;23.42;;;4.50;99.90;;;;;;5047469;28;20142;-60
2022/03/22 06:06:38;;;;;;;39.38;24.63;;;4.60;99.90;;;;;;5042598;28;20453;-60
2022/03/22 06:09:07;;;;;;;33.05;23.90;;;4.70;99.90;;;;;;5054229;28;20771;-60
2022/03/22 06:11:35;;;;;;;39.92;23.90;;;4.70;99.90;;;;;;5036667;28;20050;-60
2022/03/22 06:14:07;;;;;;;38.33;26.48;;;4.70;99.90;;;;;;5054489;28;20044;-60
2022/03/22 06:16:33;;;;;;;37.05;24.45;;;4.60;99.90;;;;;;5054270;28;20037;-60
2022/03/22 06:18:59;;;;;;;27.08;21.20;;;4.60;99.90;;;;;;5054598;28;20051;-60
2022/03/22 06:21:25;;;;;;;39.75;23.80;;;4.60;99.90;;;;;;5053071;28;20048;-60
2022/03/22 06:23:52;;;;;;;36.22;22.70;;;4.60;99.90;;;;;;5053545;28;20135;-60
2022/03/22 06:26:17;;;;;;;44.45;24.25;;;4.70;99.90;;;;;;5035811;28;20049;-61
2022/03/22 06:28:43;;;;;;;31.52;23.20;;;4.70;99.90;;;;;;5021927;28;20872;-61
2022/03/22 06:31:09;;;;;;;44.75;26.38;;;4.70;99.90;;;;;;5032608;28;20080;-61
2022/03/22 06:33:35;;;;;;;34.17;23.02;;;4.80;99.90;;;;;;5041780;28;20044;-60
2022/03/22 06:36:01;;;;;;;36.45;23.05;;;4.80;99.90;;;;;;5042251;28;20060;-59
2022/03/22 06:38:28;;;;;;;40.50;22.45;;;4.80;99.90;;;;;;5037573;28;20045;-59
2022/03/22 06:40:53;;;;;;;39.25;23.77;;;4.80;99.90;;;;;;5034375;28;20471;-60
2022/03/22 06:43:20;;;;;;;37.60;21.02;;;4.80;99.90;;;;;;5040790;28;20056;-60
2022/03/22 06:45:47;;;;;;;38.10;23.88;;;4.90;99.90;;;;;;5044009;28;20131;-60
2022/03/22 06:48:15;;;;;;;25.95;18.52;;;5.00;99.90;;;;;;5044043;28;20059;-60
2022/03/22 06:50:43;;;;;;;34.83;25.17;;;5.10;99.90;;;;;;5035337;28;20137;-60
2022/03/22 06:53:09;;;;;;;37.75;23.17;;;5.20;99.90;;;;;;5033739;28;20451;-60
2022/03/22 06:55:36;;;;;;;37.50;22.20;;;5.20;99.90;;;;;;5035564;28;20830;-60
2022/03/22 06:58:03;;;;;;;34.17;21.13;;;5.30;99.90;;;;;;5035570;28;20098;-59
2022/03/22 07:00:31;;;;;;;40.17;25.08;;;5.40;99.90;;;;;;5053184;28;20075;-60
2022/03/22 07:02:56;;;;;;;36.53;24.33;;;5.50;99.90;;;;;;5044487;28;20134;-60
2022/03/22 07:05:22;;;;;;;34.95;23.52;;;5.60;99.90;;;;;;5042258;28;20806;-60
2022/03/22 07:07:47;;;;;;;39.63;26.42;;;5.70;99.90;;;;;;5041737;28;20048;-60
2022/03/22 07:10:15;;;;;;;29.55;17.70;;;5.80;99.90;;;;;;5033332;28;20103;-60
2022/03/22 07:12:51;;;;;;;40.08;23.95;;;6.00;99.90;;;;;;5033425;28;20057;-60
2022/03/22 07:15:29;;;;;;;37.40;24.52;;;6.10;99.90;;;;;;5040768;28;20040;-60
2022/03/22 07:17:58;;;;;;;37.47;23.77;;;6.20;99.90;;;;;;5040719;28;20769;-59
2022/03/22 07:20:24;;;;;;;31.27;23.10;;;6.40;99.90;;;;;;5042424;28;20822;-60
2022/03/22 07:22:50;;;;;;;32.00;20.08;;;6.50;99.90;;;;;;5037951;28;20175;-60
2022/03/22 07:25:17;;;;;;;38.08;25.33;;;6.70;99.90;;;;;;5041443;28;20519;-59
2022/03/22 07:27:43;;;;;;;37.30;24.50;;;6.90;99.90;;;;;;5043487;28;20792;-59
2022/03/22 07:30:13;;;;;;;36.63;25.13;;;7.00;99.90;;;;;;5039167;28;20732;-60
2022/03/22 07:32:39;;;;;;;40.92;25.25;;;7.10;99.90;;;;;;5033949;28;20036;-59
2022/03/22 07:35:06;;;;;;;48.63;27.20;;;7.20;99.90;;;;;;5041138;28;20052;-61
2022/03/22 07:37:32;;;;;;;42.95;27.85;;;7.30;99.90;;;;;;5036198;28;20772;-59
2022/03/22 07:39:59;;;;;;;35.88;25.52;;;7.40;99.90;;;;;;5046185;28;20060;-61
2022/03/22 07:42:27;;;;;;;37.35;23.52;;;7.50;99.90;;;;;;5031961;28;20045;-60
2022/03/22 07:44:58;;;;;;;39.88;26.13;;;7.80;99.90;;;;;;5015469;28;20045;-59
2022/03/22 07:47:28;;;;;;;43.92;25.50;;;8.00;99.90;;;;;;5032914;28;20098;-59
2022/03/22 07:55:23;;;;;;;39.90;25.38;;;9.70;99.90;;;;;;5031839;28;20045;-59
2022/03/22 07:57:49;;;;;;;45.38;26.27;;;10.60;99.90;;;;;;5046078;28;20504;-59
2022/03/22 08:00:15;;;;;;;37.85;25.13;;;11.40;99.90;;;;;;5026159;28;20045;-59
2022/03/22 08:03:01;;;;;;;42.10;26.73;;;12.10;99.90;;;;;;5038460;28;20041;-60
2022/03/22 08:05:27;;;;;;;38.28;24.00;;;12.80;99.90;;;;;;5037487;28;20044;-60
2022/03/22 08:07:53;;;;;;;41.88;25.33;;;13.50;99.90;;;;;;5021888;28;20052;-60
2022/03/22 08:10:20;;;;;;;34.05;23.40;;;14.10;99.90;;;;;;5043094;28;20437;-60
2022/03/22 08:12:46;;;;;;;33.83;24.52;;;14.90;99.90;;;;;;5042076;28;20045;-60
2022/03/22 08:15:13;;;;;;;34.50;23.23;;;15.30;99.90;;;;;;5031414;28;20052;-61
2022/03/22 08:17:42;;;;;;;34.70;25.63;;;15.90;99.90;;;;;;5036283;28;20063;-61
2022/03/22 08:20:10;;;;;;;36.83;23.35;;;16.20;99.90;;;;;;5032143;28;20044;-61
2022/03/22 08:22:58;;;;;;;29.77;23.20;;;16.50;99.90;;;;;;5029112;28;20055;-60
2022/03/22 08:25:29;;;;;;;32.42;23.92;;;16.80;97.00;;;;;;5037727;28;20047;-60
2022/03/22 08:27:57;;;;;;;37.45;25.60;;;16.60;99.90;;;;;;5041393;28;20602;-60
2022/03/22 08:30:23;;;;;;;35.72;24.55;;;16.40;99.90;;;;;;5042839;28;20102;-60
2022/03/22 08:32:50;;;;;;;33.03;23.73;;;16.10;99.90;;;;;;5041525;28;20044;-60
2022/03/22 08:35:17;;;;;;;33.15;26.23;;;16.10;99.90;;;;;;5039298;28;20065;-60
2022/03/22 08:37:46;;;;;;;34.22;25.10;;;16.00;99.90;;;;;;5040967;28;20148;-61
2022/03/22 08:40:14;;;;;;;31.52;23.55;;;16.10;99.90;;;;;;5023844;28;20048;-60
2022/03/22 08:42:44;;;;;;;36.15;25.58;;;16.10;99.60;;;;;;5039825;28;20043;-60
2022/03/22 08:45:11;;;;;;;31.48;23.48;;;15.70;99.90;;;;;;5037446;28;20083;-60
2022/03/22 08:47:37;;;;;;;33.65;24.40;;;15.10;99.90;;;;;;5037990;28;20084;-60
2022/03/22 08:50:05;;;;;;;38.67;25.77;;;14.80;99.90;;;;;;5049381;28;20123;-59
2022/03/22 08:52:35;;;;;;;36.70;25.50;;;14.60;99.90;;;;;;5042839;28;20040;-60
2022/03/22 08:55:01;;;;;;;33.83;24.70;;;15.30;99.90;;;;;;5051761;28;20049;-60
2022/03/22 08:57:26;;;;;;;38.67;26.35;;;15.80;99.40;;;;;;5045031;28;20048;-61
2022/03/22 08:59:52;;;;;;;32.53;22.58;;;16.20;98.60;;;;;;5045432;28;20352;-61
2022/03/22 09:02:18;;;;;;;33.08;22.67;;;16.60;97.80;;;;;;5048166;28;20045;-60
2022/03/22 09:07:34;;;;;;;33.50;22.35;;;17.80;96.50;;;;;;5047909;28;20128;-60
2022/03/22 09:09:59;;;;;;;29.88;21.15;;;18.50;95.90;;;;;;5039580;28;20059;-60
2022/03/22 09:12:25;;;;;;;31.83;20.77;;;19.50;94.70;;;;;;5041459;28;20655;-59
2022/03/22 09:14:53;;;;;;;25.98;18.90;;;20.00;93.40;;;;;;5045945;28;20151;-60
2022/03/22 09:17:21;;;;;;;23.38;18.02;;;20.00;88.30;;;;;;5020393;28;20053;-59
2022/03/22 09:19:47;;;;;;;24.85;18.45;;;20.10;81.50;;;;;;5039173;28;20054;-59
2022/03/22 09:22:14;;;;;;;30.38;19.88;;;20.70;79.90;;;;;;5024030;28;20537;-62
2022/03/22 09:24:40;;;;;;;25.52;17.90;;;21.00;76.50;;;;;;5042173;28;20049;-59
2022/03/22 09:27:05;;;;;;;32.10;18.73;;;21.50;74.40;;;;;;5023608;28;20835;-60
2022/03/22 09:29:31;;;;;;;28.38;18.08;;;21.90;73.00;;;;;;5042133;28;20036;-60
2022/03/22 09:31:56;;;;;;;30.13;19.05;;;22.30;70.50;;;;;;5028058;28;20853;-60
2022/03/22 09:34:24;;;;;;;24.27;17.83;;;22.40;67.70;;;;;;5045184;28;20053;-60
2022/03/22 09:36:51;;;;;;;26.75;17.73;;;22.40;66.50;;;;;;5026191;28;20760;-60
2022/03/22 09:39:17;;;;;;;24.83;18.08;;;22.50;65.90;;;;;;5042321;28;20037;-60
2022/03/22 09:41:44;;;;;;;29.40;19.10;;;22.70;65.10;;;;;;5021405;28;20554;-60
2022/03/22 09:44:11;;;;;;;25.38;19.10;;;22.70;63.50;;;;;;5036830;28;20083;-60
2022/03/22 09:46:38;;;;;;;25.10;19.25;;;22.60;62.60;;;;;;5038120;28;20041;-60
2022/03/22 09:49:06;;;;;;;26.50;18.45;;;22.80;63.20;;;;;;5042166;28;20048;-59
2022/03/22 09:51:48;;;;;;;27.35;19.23;;;22.90;62.00;;;;;;5039653;28;20093;-60
2022/03/22 09:54:17;;;;;;;27.92;19.58;;;22.90;62.10;;;;;;5042142;28;20049;-61
2022/03/22 09:56:43;;;;;;;26.92;18.52;;;23.00;60.20;;;;;;5040465;28;20207;-61
2022/03/22 09:59:09;;;;;;;25.70;19.73;;;23.50;60.10;;;;;;5040148;28;20051;-61
2022/03/22 10:01:36;;;;;;;27.15;19.60;;;23.50;58.90;;;;;;5039958;28;20033;-60
2022/03/22 10:04:13;;;;;;;24.25;18.30;;;23.60;57.90;;;;;;5018238;28;20576;-60
2022/03/22 10:06:57;;;;;;;26.15;18.35;;;23.60;57.40;;;;;;5018983;28;20049;-60
2022/03/22 10:09:30;;;;;;;23.63;18.17;;;23.70;57.30;;;;;;5043770;28;20155;-59
2022/03/22 10:11:57;;;;;;;25.50;18.90;;;23.10;57.00;;;;;;4692742;28;10000091;-59
2022/03/22 10:14:33;;;;;;;27.70;19.10;;;23.10;57.30;;;;;;5047218;28;20295;-60
2022/03/22 10:17:20;;;;;;;28.52;21.27;;;22.50;55.80;;;;;;5035996;28;20114;-61
2022/03/22 10:19:51;;;;;;;29.50;19.05;;;22.70;58.00;;;;;;5034735;28;20118;-59
2022/03/22 10:22:24;;;;;;;26.90;18.07;;;22.70;57.80;;;;;;5037496;28;20813;-60
2022/03/22 10:24:53;;;;;;;28.85;18.95;;;22.90;57.30;;;;;;5034719;28;20290;-60
2022/03/22 10:27:26;;;;;;;28.90;20.73;;;23.30;57.00;;;;;;5036427;28;20504;-60
2022/03/22 10:29:53;;;;;;;30.75;20.17;;;23.80;56.60;;;;;;5040720;28;20365;-60
2022/03/22 10:32:36;;;;;;;28.55;21.17;;;23.70;56.80;;;;;;5039634;28;20510;-60
2022/03/22 10:35:21;;;;;;;26.98;20.50;;;23.50;54.70;;;;;;5038896;28;20337;-60
2022/03/22 10:37:55;;;;;;;30.92;21.50;;;23.20;55.60;;;;;;5036794;28;20383;-60
2022/03/22 10:40:24;;;;;;;27.08;21.13;;;22.90;57.10;;;;;;5036321;28;20045;-60
2022/03/22 10:42:52;;;;;;;32.40;21.90;;;22.90;56.60;;;;;;5042944;28;20059;-60
2022/03/22 10:45:18;;;;;;;29.73;21.33;;;22.40;57.50;;;;;;5033022;28;20372;-60
2022/03/22 10:47:44;;;;;;;25.38;19.17;;;22.90;57.60;;;;;;5036631;28;20543;-60
2022/03/22 10:50:10;;;;;;;25.58;19.85;;;23.20;57.60;;;;;;5038477;28;20049;-60
2022/03/22 10:52:53;;;;;;;25.85;19.83;;;22.50;57.10;;;;;;5038186;28;20148;-60
2022/03/22 10:55:21;;;;;;;25.13;18.05;;;21.80;56.30;;;;;;5035593;28;20076;-60
2022/03/22 10:57:55;;;;;;;28.05;20.88;;;21.00;58.40;;;;;;5038354;28;20131;-61
2022/03/22 11:00:21;;;;;;;28.70;21.73;;;20.40;58.80;;;;;;5044965;28;20113;-60
2022/03/22 11:02:52;;;;;;;27.38;20.60;;;20.00;59.60;;;;;;5035558;28;20144;-59
2022/03/22 11:05:19;;;;;;;29.88;20.65;;;19.30;60.60;;;;;;5038688;28;20152;-59
2022/03/22 11:07:46;;;;;;;28.77;18.60;;;19.00;61.50;;;;;;5033307;28;20744;-60
2022/03/22 11:10:12;;;;;;;24.45;18.75;;;19.00;62.10;;;;;;5032445;28;20837;-62
2022/03/22 11:12:38;;;;;;;24.10;18.40;;;19.00;61.50;;;;;;5043903;28;20163;-60
2022/03/22 11:15:06;;;;;;;29.70;19.90;;;19.00;61.90;;;;;;5051570;28;20810;-61
2022/03/22 11:17:35;;;;;;;30.73;19.70;;;18.90;62.20;;;;;;5015511;28;20091;-62
2022/03/22 11:20:07;;;;;;;29.05;19.83;;;18.80;62.80;;;;;;5036751;28;20044;-61
2022/03/22 11:22:33;;;;;;;26.37;18.93;;;18.70;62.60;;;;;;5040343;28;20055;-62
2022/03/22 11:25:13;;;;;;;28.30;19.02;;;18.80;62.20;;;;;;5041343;28;21154;-60
2022/03/22 11:27:39;;;;;;;27.13;20.05;;;18.90;62.10;;;;;;5039152;28;20705;-60
2022/03/22 11:30:08;;;;;;;28.05;20.65;;;19.00;62.10;;;;;;5021923;28;20136;-63
2022/03/22 11:35:25;;;;;;;28.27;17.67;;;19.00;61.90;;;;;;5031061;28;20281;-61
2022/03/22 11:38:00;;;;;;;29.13;18.27;;;19.20;61.70;;;;;;5031319;28;20068;-61
2022/03/22 11:43:13;;;;;;;29.33;18.88;;;19.30;60.90;;;;;;5034183;28;20732;-61
2022/03/22 11:45:49;;;;;;;28.48;19.38;;;19.20;61.30;;;;;;5045823;28;20040;-61
2022/03/22 11:48:16;;;;;;;30.23;18.92;;;19.20;61.50;;;;;;5031395;28;20055;-61
2022/03/22 11:50:45;;;;;;;24.85;19.23;;;19.10;61.60;;;;;;5038886;28;20608;-61
2022/03/22 11:53:19;;;;;;;33.08;18.95;;;19.10;60.80;;;;;;5044805;28;20048;-60
2022/03/22 11:55:51;;;;;;;25.98;18.58;;;19.10;60.40;;;;;;5048322;28;20137;-60
2022/03/22 11:58:17;;;;;;;27.80;18.83;;;19.20;59.90;;;;;;5032567;28;20532;-60
2022/03/22 12:00:58;;;;;;;30.52;19.67;;;19.20;60.70;;;;;;5033462;28;20131;-60
2022/03/22 12:03:31;;;;;;;28.45;18.00;;;19.20;59.90;;;;;;5035692;28;20148;-59
2022/03/22 12:06:13;;;;;;;31.25;17.98;;;19.30;60.00;;;;;;5033667;28;20029;-61
2022/03/22 12:08:38;;;;;;;31.90;19.35;;;19.30;59.80;;;;;;5040213;28;20051;-61
2022/03/22 12:11:04;;;;;;;26.30;17.20;;;19.40;59.70;;;;;;5015833;28;20044;-61
2022/03/22 12:13:30;;;;;;;26.17;17.55;;;19.50;60.20;;;;;;5039716;28;20055;-61
2022/03/22 12:15:57;;;;;;;32.65;18.30;;;19.50;59.70;;;;;;5036986;28;20041;-61
2022/03/22 12:18:31;;;;;;;30.95;18.88;;;19.50;59.00;;;;;;5034580;28;20044;-61
2022/03/22 12:20:57;;;;;;;31.27;18.48;;;19.50;58.90;;;;;;5040183;28;20044;-61
2022/03/22 12:23:24;;;;;;;25.50;18.20;;;19.50;59.20;;;;;;5037154;28;20656;-61
2022/03/22 12:25:51;;;;;;;27.73;17.33;;;19.50;58.90;;;;;;5023847;28;20053;-61
2022/03/22 12:28:17;;;;;;;25.92;16.95;;;19.60;58.80;;;;;;5034486;28;20045;-61
2022/03/22 12:30:44;;;;;;;26.33;17.23;;;19.70;59.10;;;;;;5038758;28;20043;-61
2022/03/22 12:33:18;;;;;;;31.83;19.10;;;19.70;59.10;;;;;;5038138;28;20577;-61
2022/03/22 12:35:45;;;;;;;29.13;17.58;;;19.70;59.20;;;;;;5032320;28;20041;-61
2022/03/22 12:38:11;;;;;;;25.60;18.08;;;19.70;59.10;;;;;;5031427;28;20059;-61
2022/03/22 12:40:36;;;;;;;31.95;17.45;;;19.60;59.00;;;;;;5030533;28;20056;-61
2022/03/22 12:43:04;;;;;;;31.00;19.50;;;19.70;59.40;;;;;;5025034;28;20122;-61
2022/03/22 12:45:33;;;;;;;29.23;16.77;;;19.80;59.10;;;;;;5030903;28;20052;-60
2022/03/22 12:48:00;;;;;;;27.27;18.83;;;19.90;59.00;;;;;;5036159;28;20045;-61
2022/03/22 12:50:28;;;;;;;33.65;17.70;;;20.00;59.10;;;;;;5036570;28;20041;-60
2022/03/22 12:52:56;;;;;;;30.23;18.25;;;20.00;59.00;;;;;;5037726;28;20056;-60
2022/03/22 12:55:22;;;;;;;25.15;16.85;;;20.10;58.90;;;;;;5037232;28;20037;-60
2022/03/22 12:57:51;;;;;;;29.58;17.80;;;20.10;58.20;;;;;;5045745;28;20838;-60
2022/03/22 13:00:38;;;;;;;27.63;16.77;;;20.10;58.30;;;;;;5042986;28;20429;-60
2022/03/22 13:03:07;;;;;;;32.72;18.58;;;20.20;58.70;;;;;;5045172;28;20037;-61
2022/03/22 13:05:33;;;;;;;29.75;17.23;;;20.20;58.70;;;;;;5021172;28;20050;-60
2022/03/22 13:07:59;;;;;;;32.08;18.48;;;20.20;58.70;;;;;;5037108;28;20103;-60
2022/03/22 13:13:19;;;;;;;30.65;18.35;;;20.20;58.80;;;;;;5040049;28;20059;-61
2022/03/22 13:15:52;;;;;;;28.05;17.25;;;20.20;58.70;;;;;;5017878;28;20098;-60
2022/03/22 13:18:19;;;;;;;34.67;18.80;;;20.20;58.20;;;;;;5037672;28;20292;-59